sensor_id;sensor_type;location;lat;lon;timestamp;pressure;altitude;pressure_sealevel;temperature;humidity
68634;BME280;55625;47.072;22.192;2023-03-01T00:01:29;100773.00;;;3.32;100.00
68634;BME280;55625;47.072;22.192;2023-03-01T00:03:57;100773.75;;;3.29;100.00
68634;BME280;55625;47.072;22.192;2023-03-01T00:06:25;100778.56;;;3.29;100.00
68634;BME280;55625;47.072;22.192;2023-03-01T00:08:52;100788.22;;;3.31;100.00
68634;BME280;55625;47.072;22.192;2023-03-01T00:11:27;100792.97;;;3.27;100.00
68634;BME280;55625;47.072;22.192;2023-03-01T00:13:57;100793.72;;;3.24;100.00
68634;BME280;55625;47.072;22.192;2023-03-01T00:16:36;100780.84;;;3.20;100.00
68634;BME280;55625;47.072;22.192;2023-03-01T00:19:05;100786.88;;;3.22;100.00
68634;BME280;55625;47.072;22.192;2023-03-01T00:21:31;100784.88;;;3.22;100.00
68634;BME280;55625;47.072;22.192;2023-03-01T00:23:57;100786.06;;;3.21;100.00
68634;BME280;55625;47.072;22.192;2023-03-01T00:26:25;100793.28;;;3.22;100.00
68634;BME280;55625;47.072;22.192;2023-03-01T00:28:53;100786.06;;;3.21;100.00
68634;BME280;55625;47.072;22.192;2023-03-01T00:31:24;100778.47;;;3.22;100.00
68634;BME280;55625;47.072;22.192;2023-03-01T00:33:59;100773.22;;;3.20;100.00
68634;BME280;55625;47.072;22.192;2023-03-01T00:36:29;100781.66;;;3.20;100.00
68634;BME280;55625;47.072;22.192;2023-03-01T00:38:55;100776.03;;;3.20;100.00
68634;BME280;55625;47.072;22.192;2023-03-01T00:41:21;100772.03;;;3.21;100.00
68634;BME280;55625;47.072;22.192;2023-03-01T00:43:49;100772.03;;;3.21;100.00
68634;BME280;55625;47.072;22.192;2023-03-01T00:46:18;100776.03;;;3.20;100.00
68634;BME280;55625;47.072;22.192;2023-03-01T00:48:45;100778.47;;;3.22;100.00
68634;BME280;55625;47.072;22.192;2023-03-01T00:51:19;100774.47;;;3.23;100.00
68634;BME280;55625;47.072;22.192;2023-03-01T00:53:46;100776.47;;;3.22;100.00
68634;BME280;55625;47.072;22.192;2023-03-01T00:56:14;100777.66;;;3.21;100.00
68634;BME280;55625;47.072;22.192;2023-03-01T00:58:41;100774.41;;;3.19;100.00
68634;BME280;55625;47.072;22.192;2023-03-01T01:03:44;100767.63;;;3.20;100.00
68634;BME280;55625;47.072;22.192;2023-03-01T01:08:51;100763.19;;;3.19;100.00
68634;BME280;55625;47.072;22.192;2023-03-01T01:11:18;100771.63;;;3.19;100.00
68634;BME280;55625;47.072;22.192;2023-03-01T01:13:46;100763.19;;;3.19;100.00
68634;BME280;55625;47.072;22.192;2023-03-01T01:16:13;100770.44;;;3.20;100.00
68634;BME280;55625;47.072;22.192;2023-03-01T01:18:40;100770.44;;;3.20;100.00
68634;BME280;55625;47.072;22.192;2023-03-01T01:21:16;100756.41;;;3.20;100.00
68634;BME280;55625;47.072;22.192;2023-03-01T01:23:44;100760.81;;;3.21;100.00
68634;BME280;55625;47.072;22.192;2023-03-01T01:26:26;100758.41;;;3.20;100.00
68634;BME280;55625;47.072;22.192;2023-03-01T01:28:53;100749.56;;;3.18;100.00
68634;BME280;55625;47.072;22.192;2023-03-01T01:31:20;100747.94;;;3.17;100.00
68634;BME280;55625;47.072;22.192;2023-03-01T01:33:49;100747.13;;;3.16;100.00
68634;BME280;55625;47.072;22.192;2023-03-01T01:36:16;100740.34;;;3.17;100.00
68634;BME280;55625;47.072;22.192;2023-03-01T01:38:42;100740.72;;;3.16;100.00
68634;BME280;55625;47.072;22.192;2023-03-01T01:41:09;100739.09;;;3.15;100.00
68634;BME280;55625;47.072;22.192;2023-03-01T01:43:41;100732.69;;;3.14;100.00
68634;BME280;55625;47.072;22.192;2023-03-01T01:46:25;100725.47;;;3.13;100.00
68634;BME280;55625;47.072;22.192;2023-03-01T01:51:42;100717.47;;;3.15;100.00
68634;BME280;55625;47.072;22.192;2023-03-01T01:54:21;100718.66;;;3.14;100.00
68634;BME280;55625;47.072;22.192;2023-03-01T01:56:55;100709.06;;;3.15;100.00
68634;BME280;55625;47.072;22.192;2023-03-01T01:59:25;100706.25;;;3.15;100.00
68634;BME280;55625;47.072;22.192;2023-03-01T02:01:54;100707.06;;;3.16;100.00
68634;BME280;55625;47.072;22.192;2023-03-01T02:04:21;100702.25;;;3.16;100.00
68634;BME280;55625;47.072;22.192;2023-03-01T02:07:15;100703.88;;;3.17;100.00
68634;BME280;55625;47.072;22.192;2023-03-01T02:09:50;100695.47;;;3.17;100.00
68634;BME280;55625;47.072;22.192;2023-03-01T02:12:20;100698.28;;;3.17;100.00
68634;BME280;55625;47.072;22.192;2023-03-01T02:14:48;100693.03;;;3.16;100.00
68634;BME280;55625;47.072;22.192;2023-03-01T02:17:16;100697.41;;;3.13;100.00
68634;BME280;55625;47.072;22.192;2023-03-01T02:20:26;100695.81;;;3.12;100.00
68634;BME280;55625;47.072;22.192;2023-03-01T02:22:56;100694.19;;;3.11;100.00
68634;BME280;55625;47.072;22.192;2023-03-01T02:30:48;100694.59;;;3.13;100.00
68634;BME280;55625;47.072;22.192;2023-03-01T02:33:36;100681.41;;;3.14;100.00
68634;BME280;55625;47.072;22.192;2023-03-01T02:36:18;100693.00;;;3.12;100.00
68634;BME280;55625;47.072;22.192;2023-03-01T02:38:46;100690.19;;;3.12;100.00
68634;BME280;55625;47.072;22.192;2023-03-01T02:41:15;100695.00;;;3.11;100.00
68634;BME280;55625;47.072;22.192;2023-03-01T02:43:42;100684.59;;;3.12;100.00
68634;BME280;55625;47.072;22.192;2023-03-01T02:46:19;100682.16;;;3.10;100.00
68634;BME280;55625;47.072;22.192;2023-03-01T02:48:55;100686.97;;;3.10;100.00
68634;BME280;55625;47.072;22.192;2023-03-01T02:54:28;100674.84;;;3.06;100.00
68634;BME280;55625;47.072;22.192;2023-03-01T02:56:58;100666.44;;;3.06;100.00
68634;BME280;55625;47.072;22.192;2023-03-01T02:59:31;100663.66;;;3.06;100.00
68634;BME280;55625;47.072;22.192;2023-03-01T03:02:01;100669.25;;;3.06;100.00
68634;BME280;55625;47.072;22.192;2023-03-01T03:04:26;100668.44;;;3.05;100.00
68634;BME280;55625;47.072;22.192;2023-03-01T03:06:52;100666.09;;;3.07;100.00
68634;BME280;55625;47.072;22.192;2023-03-01T03:09:18;100668.53;;;3.09;100.00
68634;BME280;55625;47.072;22.192;2023-03-01T03:11:45;100671.75;;;3.11;100.00
68634;BME280;55625;47.072;22.192;2023-03-01T03:14:14;100658.97;;;3.14;100.00
68634;BME280;55625;47.072;22.192;2023-03-01T03:16:49;100660.56;;;3.15;100.00
68634;BME280;55625;47.072;22.192;2023-03-01T03:19:17;100654.97;;;3.15;100.00
68634;BME280;55625;47.072;22.192;2023-03-01T03:21:43;100654.59;;;3.16;100.00
68634;BME280;55625;47.072;22.192;2023-03-01T03:24:09;100668.59;;;3.16;100.00
68634;BME280;55625;47.072;22.192;2023-03-01T03:26:35;100659.00;;;3.17;100.00
68634;BME280;55625;47.072;22.192;2023-03-01T03:29:01;100670.59;;;3.16;100.00
68634;BME280;55625;47.072;22.192;2023-03-01T03:31:27;100667.81;;;3.16;100.00
68634;BME280;55625;47.072;22.192;2023-03-01T03:33:53;100675.84;;;3.17;100.00
68634;BME280;55625;47.072;22.192;2023-03-01T03:36:22;100667.00;;;3.15;100.00
68634;BME280;55625;47.072;22.192;2023-03-01T03:38:48;100672.59;;;3.15;100.00
68634;BME280;55625;47.072;22.192;2023-03-01T03:41:15;100672.97;;;3.14;100.00
68634;BME280;55625;47.072;22.192;2023-03-01T03:43:42;100678.97;;;3.12;100.00
68634;BME280;55625;47.072;22.192;2023-03-01T03:46:10;100688.56;;;3.11;100.00
68634;BME280;55625;47.072;22.192;2023-03-01T03:48:40;100685.34;;;3.09;100.00
68634;BME280;55625;47.072;22.192;2023-03-01T03:51:09;100696.13;;;3.07;100.00
68634;BME280;55625;47.072;22.192;2023-03-01T03:53:35;100692.88;;;3.05;100.00
68634;BME280;55625;47.072;22.192;2023-03-01T03:56:01;100686.84;;;3.03;100.00
68634;BME280;55625;47.072;22.192;2023-03-01T03:58:27;100693.25;;;3.03;100.00
68634;BME280;55625;47.072;22.192;2023-03-01T04:00:56;100697.25;;;3.02;100.00
68634;BME280;55625;47.072;22.192;2023-03-01T04:03:24;100687.59;;;3.00;100.00
68634;BME280;55625;47.072;22.192;2023-03-01T04:05:51;100688.41;;;3.00;100.00
68634;BME280;55625;47.072;22.192;2023-03-01T04:08:19;100679.63;;;3.02;100.00
68634;BME280;55625;47.072;22.192;2023-03-01T04:10:51;100673.16;;;2.98;100.00
68634;BME280;55625;47.072;22.192;2023-03-01T04:13:20;100677.56;;;2.99;100.00
68634;BME280;55625;47.072;22.192;2023-03-01T04:15:50;100675.94;;;2.98;100.00
68634;BME280;55625;47.072;22.192;2023-03-01T04:18:18;100675.53;;;2.96;100.00
68634;BME280;55625;47.072;22.192;2023-03-01T04:20:45;100675.91;;;2.94;100.00
68634;BME280;55625;47.072;22.192;2023-03-01T04:23:17;100677.91;;;2.94;100.00
68634;BME280;55625;47.072;22.192;2023-03-01T04:25:57;100669.81;;;2.89;100.00
68634;BME280;55625;47.072;22.192;2023-03-01T04:28:39;100671.38;;;2.86;100.00
68634;BME280;55625;47.072;22.192;2023-03-01T04:31:14;100681.03;;;2.89;100.00
68634;BME280;55625;47.072;22.192;2023-03-01T04:33:51;100672.56;;;2.85;100.00
68634;BME280;55625;47.072;22.192;2023-03-01T04:36:20;100684.59;;;2.86;100.00
68634;BME280;55625;47.072;22.192;2023-03-01T04:38:47;100690.19;;;2.86;100.00
68634;BME280;55625;47.072;22.192;2023-03-01T04:41:19;100687.81;;;2.88;100.00
68634;BME280;55625;47.072;22.192;2023-03-01T04:43:46;100687.78;;;2.84;100.00
68634;BME280;55625;47.072;22.192;2023-03-01T04:46:16;100689.44;;;2.89;100.00
68634;BME280;55625;47.072;22.192;2023-03-01T04:48:43;100679.84;;;2.90;100.00
68634;BME280;55625;47.072;22.192;2023-03-01T04:51:10;100677.84;;;2.90;100.00
68634;BME280;55625;47.072;22.192;2023-03-01T04:53:41;100677.47;;;2.92;100.00
68634;BME280;55625;47.072;22.192;2023-03-01T04:56:08;100673.06;;;2.91;100.00
68634;BME280;55625;47.072;22.192;2023-03-01T04:58:34;100673.47;;;2.93;100.00
68634;BME280;55625;47.072;22.192;2023-03-01T05:00:59;100672.69;;;2.92;100.00
68634;BME280;55625;47.072;22.192;2023-03-01T05:03:25;100670.69;;;2.93;100.00
68634;BME280;55625;47.072;22.192;2023-03-01T05:05:52;100668.25;;;2.91;100.00
68634;BME280;55625;47.072;22.192;2023-03-01T05:08:18;100676.63;;;2.88;100.00
68634;BME280;55625;47.072;22.192;2023-03-01T05:10:50;100665.84;;;2.90;100.00
68634;BME280;55625;47.072;22.192;2023-03-01T05:13:18;100674.66;;;2.92;100.00
68634;BME280;55625;47.072;22.192;2023-03-01T05:15:55;100677.91;;;2.94;100.00
68634;BME280;55625;47.072;22.192;2023-03-01T05:18:23;100670.72;;;2.96;100.00
68634;BME280;55625;47.072;22.192;2023-03-01T05:20:52;100669.16;;;2.99;100.00
68634;BME280;55625;47.072;22.192;2023-03-01T05:23:18;100667.59;;;3.01;100.00
68634;BME280;55625;47.072;22.192;2023-03-01T05:25:44;100678.00;;;3.01;100.00
68634;BME280;55625;47.072;22.192;2023-03-01T05:28:13;100676.44;;;3.03;100.00
68634;BME280;55625;47.072;22.192;2023-03-01T05:30:40;100680.81;;;3.01;100.00
68634;BME280;55625;47.072;22.192;2023-03-01T05:33:07;100679.63;;;3.02;100.00
68634;BME280;55625;47.072;22.192;2023-03-01T05:35:43;100687.59;;;3.00;100.00
68634;BME280;55625;47.072;22.192;2023-03-01T05:38:13;100688.41;;;3.00;100.00
68634;BME280;55625;47.072;22.192;2023-03-01T05:40:44;100678.00;;;3.01;100.00
68634;BME280;55625;47.072;22.192;2023-03-01T05:43:12;100687.66;;;3.03;100.00
68634;BME280;55625;47.072;22.192;2023-03-01T05:45:39;100683.66;;;3.04;100.00
68634;BME280;55625;47.072;22.192;2023-03-01T05:48:07;100685.22;;;3.02;100.00
68634;BME280;55625;47.072;22.192;2023-03-01T05:50:37;100680.41;;;3.02;100.00
68634;BME280;55625;47.072;22.192;2023-03-01T05:53:16;100689.97;;;2.98;100.00
68634;BME280;55625;47.072;22.192;2023-03-01T05:55:43;100684.38;;;2.98;100.00
68634;BME280;55625;47.072;22.192;2023-03-01T05:58:13;100682.78;;;3.00;100.00
68634;BME280;55625;47.072;22.192;2023-03-01T06:00:44;100680.38;;;2.99;100.00
68634;BME280;55625;47.072;22.192;2023-03-01T06:03:16;100686.03;;;3.02;100.00
68634;BME280;55625;47.072;22.192;2023-03-01T06:05:43;100688.88;;;3.06;100.00
68634;BME280;55625;47.072;22.192;2023-03-01T06:08:11;100686.53;;;3.08;100.00
68634;BME280;55625;47.072;22.192;2023-03-01T06:10:37;100693.00;;;3.12;100.00
68634;BME280;55625;47.072;22.192;2023-03-01T06:13:04;100687.06;;;3.17;100.00
68634;BME280;55625;47.072;22.192;2023-03-01T06:15:30;100688.25;;;3.16;100.00
68634;BME280;55625;47.072;22.192;2023-03-01T06:17:56;100696.66;;;3.16;100.00
68634;BME280;55625;47.072;22.192;2023-03-01T06:20:27;100695.88;;;3.19;100.00
68634;BME280;55625;47.072;22.192;2023-03-01T06:22:54;100688.31;;;3.23;100.00
68634;BME280;55625;47.072;22.192;2023-03-01T06:25:23;100681.56;;;3.28;100.00
68634;BME280;55625;47.072;22.192;2023-03-01T06:27:49;100684.41;;;3.31;100.00
68634;BME280;55625;47.072;22.192;2023-03-01T06:30:18;100684.84;;;3.33;100.00
68634;BME280;55625;47.072;22.192;2023-03-01T06:32:44;100682.47;;;3.35;100.00
68634;BME280;55625;47.072;22.192;2023-03-01T06:35:12;100681.72;;;3.38;100.00
68634;BME280;55625;47.072;22.192;2023-03-01T06:37:40;100680.13;;;3.37;100.00
68634;BME280;55625;47.072;22.192;2023-03-01T06:40:07;100676.16;;;3.42;100.00
68634;BME280;55625;47.072;22.192;2023-03-01T06:42:35;100683.38;;;3.43;100.00
68634;BME280;55625;47.072;22.192;2023-03-01T06:45:03;100677.34;;;3.41;100.00
68634;BME280;55625;47.072;22.192;2023-03-01T06:47:29;100673.78;;;3.44;100.00
68634;BME280;55625;47.072;22.192;2023-03-01T06:49:55;100677.81;;;3.47;100.00
68634;BME280;55625;47.072;22.192;2023-03-01T06:52:21;100672.28;;;3.54;100.00
68634;BME280;55625;47.072;22.192;2023-03-01T06:54:47;100669.56;;;3.61;100.00
68634;BME280;55625;47.072;22.192;2023-03-01T06:57:12;100671.59;;;3.64;100.00
68634;BME280;55625;47.072;22.192;2023-03-01T06:59:38;100669.28;;;3.69;100.00
68634;BME280;55625;47.072;22.192;2023-03-01T07:02:04;100673.31;;;3.72;100.00
68634;BME280;55625;47.072;22.192;2023-03-01T07:04:30;100678.16;;;3.75;100.00
68634;BME280;55625;47.072;22.192;2023-03-01T07:06:56;100675.78;;;3.77;100.00
68634;BME280;55625;47.072;22.192;2023-03-01T07:09:23;100678.19;;;3.79;100.00
68634;BME280;55625;47.072;22.192;2023-03-01T07:11:49;100679.41;;;3.81;100.00
68634;BME280;55625;47.072;22.192;2023-03-01T07:14:16;100673.03;;;3.84;100.00
68634;BME280;55625;47.072;22.192;2023-03-01T07:16:42;100670.28;;;3.91;100.00
68634;BME280;55625;47.072;22.192;2023-03-01T07:19:08;100673.13;;;3.95;100.00
68634;BME280;55625;47.072;22.192;2023-03-01T07:21:33;100679.63;;;3.99;100.00
68634;BME280;55625;47.072;22.192;2023-03-01T07:23:59;100669.25;;;4.07;100.00
68634;BME280;55625;47.072;22.192;2023-03-01T07:26:25;100669.72;;;4.12;100.00
68634;BME280;55625;47.072;22.192;2023-03-01T07:28:51;100673.34;;;4.16;100.00
68634;BME280;55625;47.072;22.192;2023-03-01T07:31:17;100674.66;;;4.26;100.00
68634;BME280;55625;47.072;22.192;2023-03-01T07:33:43;100669.09;;;4.33;100.00
68634;BME280;55625;47.072;22.192;2023-03-01T07:36:09;100659.53;;;4.41;100.00
68634;BME280;55625;47.072;22.192;2023-03-01T07:38:35;100672.06;;;4.54;100.00
68634;BME280;55625;47.072;22.192;2023-03-01T07:41:03;100659.72;;;4.62;100.00
68634;BME280;55625;47.072;22.192;2023-03-01T07:43:30;100654.13;;;4.70;100.00
68634;BME280;55625;47.072;22.192;2023-03-01T07:46:00;100658.59;;;4.78;100.00
68634;BME280;55625;47.072;22.192;2023-03-01T07:48:26;100655.84;;;4.88;100.00
68634;BME280;55625;47.072;22.192;2023-03-01T07:50:52;100656.72;;;4.92;100.00
68634;BME280;55625;47.072;22.192;2023-03-01T07:53:18;100656.75;;;4.99;99.87
68634;BME280;55625;47.072;22.192;2023-03-01T07:55:44;100650.31;;;4.99;100.00
68634;BME280;55625;47.072;22.192;2023-03-01T07:58:10;100658.38;;;5.08;100.00
68634;BME280;55625;47.072;22.192;2023-03-01T08:00:35;100654.00;;;5.17;99.12
68634;BME280;55625;47.072;22.192;2023-03-01T08:03:02;100650.47;;;5.27;98.93
68634;BME280;55625;47.072;22.192;2023-03-01T08:05:28;100648.91;;;5.44;98.74
68634;BME280;55625;47.072;22.192;2023-03-01T08:07:54;100654.63;;;5.66;97.09
68634;BME280;55625;47.072;22.192;2023-03-01T08:10:20;100643.38;;;5.76;97.92
68634;BME280;55625;47.072;22.192;2023-03-01T08:12:46;100647.50;;;6.00;96.75
68634;BME280;55625;47.072;22.192;2023-03-01T08:15:12;100637.06;;;6.29;95.82
68634;BME280;55625;47.072;22.192;2023-03-01T08:17:38;100631.44;;;6.54;93.37
68634;BME280;55625;47.072;22.192;2023-03-01T08:20:04;100624.16;;;6.74;90.87
68634;BME280;55625;47.072;22.192;2023-03-01T08:22:32;100623.28;;;6.99;89.32
68634;BME280;55625;47.072;22.192;2023-03-01T08:24:58;100631.34;;;7.07;89.47
68634;BME280;55625;47.072;22.192;2023-03-01T08:27:24;100623.59;;;7.29;85.92
68634;BME280;55625;47.072;22.192;2023-03-01T08:29:49;100616.31;;;7.35;85.13
68634;BME280;55625;47.072;22.192;2023-03-01T08:32:15;100610.53;;;7.60;83.93
68634;BME280;55625;47.072;22.192;2023-03-01T08:34:41;100612.53;;;7.63;82.02
68634;BME280;55625;47.072;22.192;2023-03-01T08:37:07;100611.66;;;7.77;81.50
68634;BME280;55625;47.072;22.192;2023-03-01T08:39:33;100606.28;;;7.93;78.41
68634;BME280;55625;47.072;22.192;2023-03-01T08:41:58;100602.91;;;8.16;77.88
68634;BME280;55625;47.072;22.192;2023-03-01T08:44:24;100603.00;;;8.57;77.11
68634;BME280;55625;47.072;22.192;2023-03-01T08:46:51;100598.38;;;8.74;75.05
68634;BME280;55625;47.072;22.192;2023-03-01T08:49:19;100593.81;;;8.84;74.84
68634;BME280;55625;47.072;22.192;2023-03-01T08:51:47;100596.78;;;9.11;73.67
68634;BME280;55625;47.072;22.192;2023-03-01T08:54:19;100587.22;;;9.31;74.74
68634;BME280;55625;47.072;22.192;2023-03-01T08:56:46;100596.03;;;9.68;75.51
68634;BME280;55625;47.072;22.192;2023-03-01T08:59:13;100590.28;;;9.75;73.06
68634;BME280;55625;47.072;22.192;2023-03-01T09:01:40;100591.94;;;9.72;73.66
68634;BME280;55625;47.072;22.192;2023-03-01T09:04:09;100586.31;;;9.95;74.69
68634;BME280;55625;47.072;22.192;2023-03-01T09:06:35;100584.59;;;9.75;75.84
68634;BME280;55625;47.072;22.192;2023-03-01T09:09:03;100581.84;;;9.98;75.94
68634;BME280;55625;47.072;22.192;2023-03-01T09:11:29;100581.34;;;9.76;75.81
68634;BME280;55625;47.072;22.192;2023-03-01T09:13:55;100584.53;;;9.82;75.50
68634;BME280;55625;47.072;22.192;2023-03-01T09:16:23;100578.38;;;9.87;72.40
68634;BME280;55625;47.072;22.192;2023-03-01T09:18:51;100582.16;;;10.31;73.22
68634;BME280;55625;47.072;22.192;2023-03-01T09:21:19;100572.50;;;10.71;72.09
68634;BME280;55625;47.072;22.192;2023-03-01T09:23:47;100571.69;;;11.14;71.19
68634;BME280;55625;47.072;22.192;2023-03-01T09:26:19;100566.50;;;11.48;71.47
68634;BME280;55625;47.072;22.192;2023-03-01T09:28:48;100566.56;;;11.65;68.92
68634;BME280;55625;47.072;22.192;2023-03-01T09:31:15;100563.91;;;11.74;66.66
68634;BME280;55625;47.072;22.192;2023-03-01T09:33:45;100570.38;;;11.18;66.70
68634;BME280;55625;47.072;22.192;2023-03-01T09:36:18;100553.72;;;11.57;67.54
68634;BME280;55625;47.072;22.192;2023-03-01T09:38:44;100553.88;;;11.49;64.16
68634;BME280;55625;47.072;22.192;2023-03-01T09:41:46;100549.53;;;11.81;63.19
68634;BME280;55625;47.072;22.192;2023-03-01T09:44:27;100552.34;;;11.65;64.14
68634;BME280;55625;47.072;22.192;2023-03-01T09:46:55;100558.78;;;11.29;61.60
68634;BME280;55625;47.072;22.192;2023-03-01T09:49:29;100544.19;;;11.47;63.39
68634;BME280;55625;47.072;22.192;2023-03-01T09:52:09;100548.28;;;11.26;61.65
68634;BME280;55625;47.072;22.192;2023-03-01T09:54:38;100546.75;;;11.41;62.80
68634;BME280;55625;47.072;22.192;2023-03-01T10:05:49;100534.88;;;12.48;56.08
68634;BME280;55625;47.072;22.192;2023-03-01T10:11:04;100532.50;;;12.30;56.69
68634;BME280;55625;47.072;22.192;2023-03-01T10:13:50;100522.53;;;12.05;56.15
68634;BME280;55625;47.072;22.192;2023-03-01T10:19:05;100522.31;;;12.61;55.15
68634;BME280;55625;47.072;22.192;2023-03-01T10:21:43;100517.34;;;12.49;55.74
68634;BME280;55625;47.072;22.192;2023-03-01T10:24:16;100511.50;;;12.24;57.28
68634;BME280;55625;47.072;22.192;2023-03-01T10:29:15;100510.78;;;12.20;55.29
68634;BME280;55625;47.072;22.192;2023-03-01T10:31:44;100501.63;;;12.73;54.85
68634;BME280;55625;47.072;22.192;2023-03-01T10:34:20;100507.28;;;12.90;54.29
68634;BME280;55625;47.072;22.192;2023-03-01T10:36:53;100504.25;;;12.81;54.05
68634;BME280;55625;47.072;22.192;2023-03-01T10:39:25;100504.78;;;12.63;55.66
68634;BME280;55625;47.072;22.192;2023-03-01T10:42:01;100500.16;;;12.53;52.19
68634;BME280;55625;47.072;22.192;2023-03-01T10:47:27;100491.50;;;12.85;53.19
68634;BME280;55625;47.072;22.192;2023-03-01T10:49:58;100498.19;;;12.95;52.69
68634;BME280;55625;47.072;22.192;2023-03-01T10:52:33;100492.97;;;12.77;54.09
68634;BME280;55625;47.072;22.192;2023-03-01T10:55:39;100494.19;;;13.21;52.22
68634;BME280;55625;47.072;22.192;2023-03-01T10:58:20;100494.53;;;13.36;52.00
68634;BME280;55625;47.072;22.192;2023-03-01T11:00:52;100483.00;;;13.40;52.09
68634;BME280;55625;47.072;22.192;2023-03-01T11:03:25;100470.75;;;13.14;51.33
68634;BME280;55625;47.072;22.192;2023-03-01T11:06:02;100473.72;;;12.81;52.12
68634;BME280;55625;47.072;22.192;2023-03-01T11:08:41;100470.44;;;12.54;53.86
68634;BME280;55625;47.072;22.192;2023-03-01T11:11:33;100462.09;;;12.75;54.85
68634;BME280;55625;47.072;22.192;2023-03-01T11:14:20;100462.34;;;12.81;53.37
68634;BME280;55625;47.072;22.192;2023-03-01T11:16:58;100443.69;;;12.93;51.56
68634;BME280;55625;47.072;22.192;2023-03-01T11:19:24;100439.38;;;12.88;53.51
68634;BME280;55625;47.072;22.192;2023-03-01T11:24:56;100445.72;;;12.51;54.38
68634;BME280;55625;47.072;22.192;2023-03-01T11:27:31;100443.53;;;12.71;53.73
68634;BME280;55625;47.072;22.192;2023-03-01T11:36:44;100427.94;;;12.47;52.54
68634;BME280;55625;47.072;22.192;2023-03-01T11:39:37;100426.53;;;12.67;52.51
68634;BME280;55625;47.072;22.192;2023-03-01T11:42:20;100421.84;;;12.61;53.47
68634;BME280;55625;47.072;22.192;2023-03-01T11:44:50;100426.06;;;12.56;53.91
68634;BME280;55625;47.072;22.192;2023-03-01T11:52:45;100413.72;;;12.88;52.20
68634;BME280;55625;47.072;22.192;2023-03-01T12:04:26;100386.25;;;12.40;54.98
68634;BME280;55625;47.072;22.192;2023-03-01T12:15:08;100390.19;;;12.71;51.44
68634;BME280;55625;47.072;22.192;2023-03-01T12:20:29;100382.78;;;12.61;54.25
68634;BME280;55625;47.072;22.192;2023-03-01T12:26:17;100378.41;;;12.98;53.54
68634;BME280;55625;47.072;22.192;2023-03-01T12:32:12;100366.72;;;13.22;52.90
68634;BME280;55625;47.072;22.192;2023-03-01T12:40:46;100366.44;;;13.16;50.12
68634;BME280;55625;47.072;22.192;2023-03-01T12:50:18;100356.41;;;12.99;50.13
68634;BME280;55625;47.072;22.192;2023-03-01T12:52:52;100348.66;;;12.87;51.33
68634;BME280;55625;47.072;22.192;2023-03-01T12:55:41;100347.13;;;12.69;53.21
68634;BME280;55625;47.072;22.192;2023-03-01T13:01:36;100356.38;;;12.32;54.58
68634;BME280;55625;47.072;22.192;2023-03-01T13:10:10;100345.59;;;11.65;57.84
68634;BME280;55625;47.072;22.192;2023-03-01T13:17:57;100336.59;;;11.83;55.34
68634;BME280;55625;47.072;22.192;2023-03-01T13:20:54;100340.25;;;11.84;56.69
68634;BME280;55625;47.072;22.192;2023-03-01T13:26:16;100337.22;;;11.58;58.77
68634;BME280;55625;47.072;22.192;2023-03-01T13:33:50;100324.88;;;11.48;57.70
68634;BME280;55625;47.072;22.192;2023-03-01T13:39:18;100328.19;;;11.14;59.21
68634;BME280;55625;47.072;22.192;2023-03-01T13:41:54;100326.50;;;11.33;58.42
68634;BME280;55625;47.072;22.192;2023-03-01T13:49:58;100328.97;;;11.15;60.35
68634;BME280;55625;47.072;22.192;2023-03-01T13:52:39;100328.78;;;11.22;60.24
68634;BME280;55625;47.072;22.192;2023-03-01T13:55:42;100332.53;;;11.03;59.99
68634;BME280;55625;47.072;22.192;2023-03-01T13:58:21;100327.53;;;10.91;59.84
68634;BME280;55625;47.072;22.192;2023-03-01T14:00:54;100324.69;;;10.91;60.69
68634;BME280;55625;47.072;22.192;2023-03-01T14:03:20;100320.88;;;10.61;61.37
68634;BME280;55625;47.072;22.192;2023-03-01T14:08:36;100312.63;;;10.50;63.00
68634;BME280;55625;47.072;22.192;2023-03-01T14:19:48;100304.13;;;10.31;64.62
68634;BME280;55625;47.072;22.192;2023-03-01T14:22:43;100304.03;;;10.34;63.27
68634;BME280;55625;47.072;22.192;2023-03-01T14:25:32;100303.69;;;10.32;62.91
68634;BME280;55625;47.072;22.192;2023-03-01T14:31:00;100298.38;;;10.14;64.58
68634;BME280;55625;47.072;22.192;2023-03-01T14:33:33;100298.25;;;10.21;65.22
68634;BME280;55625;47.072;22.192;2023-03-01T14:36:02;100302.00;;;10.35;64.89
68634;BME280;55625;47.072;22.192;2023-03-01T14:38:43;100306.34;;;10.19;64.81
68634;BME280;55625;47.072;22.192;2023-03-01T14:43:51;100300.88;;;10.09;64.86
68634;BME280;55625;47.072;22.192;2023-03-01T14:46:33;100297.75;;;10.03;64.85
68634;BME280;55625;47.072;22.192;2023-03-01T14:49:24;100293.63;;;10.08;65.04
68634;BME280;55625;47.072;22.192;2023-03-01T14:52:05;100295.88;;;9.96;66.55
68634;BME280;55625;47.072;22.192;2023-03-01T14:54:46;100298.50;;;9.87;66.29
68634;BME280;55625;47.072;22.192;2023-03-01T14:57:23;100290.44;;;9.86;67.42
68634;BME280;55625;47.072;22.192;2023-03-01T14:59:51;100287.16;;;9.87;67.90
68634;BME280;55625;47.072;22.192;2023-03-01T15:02:23;100292.53;;;9.82;68.61
68634;BME280;55625;47.072;22.192;2023-03-01T15:04:56;100279.59;;;9.81;67.40
68634;BME280;55625;47.072;22.192;2023-03-01T15:07:29;100284.41;;;9.84;67.83
68634;BME280;55625;47.072;22.192;2023-03-01T15:09:58;100271.22;;;9.74;67.68
68634;BME280;55625;47.072;22.192;2023-03-01T15:14:54;100284.44;;;9.60;68.99
68634;BME280;55625;47.072;22.192;2023-03-01T15:17:36;100276.44;;;9.55;71.55
68634;BME280;55625;47.072;22.192;2023-03-01T15:20:16;100272.50;;;9.49;73.26